createdAt,value
2018-01-24T00:00:56.799Z,0.00
2018-01-24T00:01:56.796Z,0.00
2018-01-24T00:02:56.833Z,0.00
2018-01-24T00:03:56.798Z,0.00
2018-01-24T00:04:56.791Z,0.00
2018-01-24T00:05:56.828Z,0.00
2018-01-24T00:06:57.132Z,0.00
2018-01-24T00:07:56.784Z,0.00
2018-01-24T00:08:56.787Z,0.00
2018-01-24T00:09:56.818Z,0.00
2018-01-24T00:10:56.776Z,0.00
2018-01-24T00:11:56.777Z,0.00
2018-01-24T00:12:56.777Z,0.00
2018-01-24T00:13:56.775Z,0.00
2018-01-24T00:14:56.810Z,0.00
2018-01-24T00:15:56.765Z,0.00
2018-01-24T00:16:56.761Z,0.00
2018-01-24T00:17:56.763Z,0.00
2018-01-24T00:18:56.759Z,0.00
2018-01-24T00:19:56.799Z,0.00
2018-01-24T00:20:56.758Z,0.00
2018-01-24T00:21:56.755Z,0.00
2018-01-24T00:22:57.360Z,0.00
2018-01-24T00:23:56.748Z,0.00
2018-01-24T00:24:56.791Z,0.00
2018-01-24T00:25:56.743Z,0.00
2018-01-24T00:26:56.741Z,0.00
2018-01-24T00:27:56.740Z,0.00
2018-01-24T00:28:56.738Z,0.00
2018-01-24T00:29:56.781Z,0.00
2018-01-24T00:30:56.735Z,0.00
2018-01-24T00:31:56.803Z,0.00
2018-01-24T00:32:56.770Z,0.00
2018-01-24T00:33:56.730Z,0.00
2018-01-24T00:34:56.725Z,0.00
2018-01-24T00:35:56.763Z,0.00
2018-01-24T00:36:56.719Z,0.00
2018-01-24T00:37:56.718Z,0.00
2018-01-24T00:38:56.724Z,0.00
2018-01-24T00:39:56.712Z,0.00
2018-01-24T00:40:56.755Z,0.00
2018-01-24T00:41:56.713Z,0.00
2018-01-24T00:42:56.749Z,0.00
2018-01-24T00:43:56.703Z,0.00
2018-01-24T00:44:56.705Z,0.00
2018-01-24T00:45:56.702Z,0.00
2018-01-24T00:46:56.760Z,0.00
2018-01-24T00:47:56.741Z,0.00
2018-01-24T00:48:56.695Z,0.00
2018-01-24T00:49:56.691Z,0.00
2018-01-24T00:50:56.689Z,0.00
2018-01-24T00:51:56.691Z,0.00
2018-01-24T00:52:56.731Z,0.00
2018-01-24T00:53:56.683Z,0.00
2018-01-24T00:54:56.681Z,0.00
2018-01-24T00:55:56.679Z,0.00
2018-01-24T00:56:56.677Z,0.00
2018-01-24T00:57:56.715Z,0.00
2018-01-24T00:58:56.671Z,0.00
2018-01-24T00:59:56.686Z,0.00
2018-01-24T01:00:56.668Z,0.00
2018-01-24T01:01:56.664Z,0.00
2018-01-24T01:02:56.707Z,0.00
2018-01-24T01:03:56.662Z,0.00
2018-01-24T01:04:56.660Z,0.00
2018-01-24T01:05:56.656Z,0.00
2018-01-24T01:06:56.654Z,0.00
2018-01-24T01:07:56.691Z,0.00
2018-01-24T01:08:56.689Z,0.00
2018-01-24T01:09:56.648Z,0.00
2018-01-24T01:10:56.645Z,0.00
2018-01-24T01:11:56.640Z,0.00
2018-01-24T01:12:56.641Z,0.00
2018-01-24T01:13:56.682Z,0.00
2018-01-24T01:14:56.639Z,0.00
2018-01-24T01:15:56.632Z,0.00
2018-01-24T01:16:57.415Z,0.00
2018-01-24T01:17:56.675Z,0.00
2018-01-24T01:18:56.668Z,0.00
2018-01-24T01:19:56.622Z,0.00
2018-01-24T01:20:56.623Z,0.00
2018-01-24T01:21:56.619Z,0.00
2018-01-24T01:22:56.617Z,0.00
2018-01-24T01:23:56.663Z,0.00
2018-01-24T01:24:56.614Z,0.00
2018-01-24T01:25:56.609Z,0.00
2018-01-24T01:26:56.608Z,0.00
2018-01-24T01:27:56.650Z,0.00
2018-01-24T01:28:56.604Z,0.00
2018-01-24T01:29:56.604Z,0.00
2018-01-24T01:30:56.598Z,0.00
2018-01-24T01:31:56.881Z,0.00
2018-01-24T01:32:56.632Z,0.00
2018-01-24T01:33:56.591Z,0.00
2018-01-24T01:34:56.632Z,0.00
2018-01-24T01:35:56.585Z,0.00
2018-01-24T01:36:56.588Z,0.00
2018-01-24T01:37:56.580Z,0.00
2018-01-24T01:38:57.328Z,0.00
2018-01-24T01:39:56.616Z,0.00
2018-01-24T01:40:56.576Z,0.00
2018-01-24T01:41:56.570Z,0.00
2018-01-24T01:42:56.570Z,0.00
2018-01-24T01:43:56.567Z,0.00
2018-01-24T01:44:56.610Z,0.00
2018-01-24T01:45:56.562Z,0.00
2018-01-24T01:46:56.559Z,0.00
2018-01-24T01:47:56.558Z,0.00
2018-01-24T01:48:56.558Z,0.00
2018-01-24T01:49:56.599Z,0.00
2018-01-24T01:50:56.551Z,0.00
2018-01-24T01:51:56.594Z,0.00
2018-01-24T01:52:56.551Z,0.00
2018-01-24T01:53:56.547Z,0.00
2018-01-24T01:54:56.543Z,0.00
2018-01-24T01:55:56.594Z,0.00
2018-01-24T01:56:56.592Z,0.00
2018-01-24T01:57:56.541Z,0.00
2018-01-24T01:58:56.539Z,0.00
2018-01-24T01:59:56.530Z,0.00
2018-01-24T02:00:56.583Z,0.00
2018-01-24T02:01:56.524Z,0.00
2018-01-24T02:02:56.569Z,0.00
2018-01-24T02:03:56.522Z,0.00
2018-01-24T02:04:56.522Z,0.00
2018-01-24T02:05:56.519Z,0.00
2018-01-24T02:06:56.558Z,0.00
2018-01-24T02:07:56.516Z,0.00
2018-01-24T02:08:56.512Z,0.00
2018-01-24T02:09:56.511Z,0.00
2018-01-24T02:10:56.509Z,0.00
2018-01-24T02:11:56.551Z,0.00
2018-01-24T02:12:56.503Z,0.00
2018-01-24T02:13:56.499Z,0.00
2018-01-24T02:14:56.497Z,0.00
2018-01-24T02:15:56.493Z,0.00
2018-01-24T02:16:56.540Z,0.00
2018-01-24T02:17:56.496Z,0.00
2018-01-24T02:18:56.488Z,0.00
2018-01-24T02:19:56.486Z,0.00
2018-01-24T02:20:56.484Z,0.00
2018-01-24T02:21:56.519Z,0.00
2018-01-24T02:22:56.518Z,0.00
2018-01-24T02:23:56.477Z,0.00
2018-01-24T02:24:56.478Z,0.00
2018-01-24T02:25:56.475Z,0.00
2018-01-24T02:26:56.477Z,0.00
2018-01-24T02:27:56.511Z,0.00
2018-01-24T02:28:56.469Z,0.00
2018-01-24T02:29:56.468Z,0.00
2018-01-24T02:30:56.462Z,0.00
2018-01-24T02:31:56.464Z,0.00
2018-01-24T02:32:56.501Z,0.00
2018-01-24T02:33:56.460Z,0.00
2018-01-24T02:34:56.459Z,0.00
2018-01-24T02:35:56.456Z,0.00
2018-01-24T02:36:56.452Z,0.00
2018-01-24T02:37:56.500Z,0.00
2018-01-24T02:38:56.446Z,0.00
2018-01-24T02:39:56.445Z,0.00
2018-01-24T02:40:56.490Z,0.00
2018-01-24T02:41:56.440Z,0.00
2018-01-24T02:42:56.438Z,0.00
2018-01-24T02:43:56.439Z,0.00
2018-01-24T02:44:56.431Z,0.00
2018-01-24T02:45:56.480Z,0.00
2018-01-24T02:46:56.431Z,0.00
2018-01-24T02:47:56.425Z,0.00
2018-01-24T02:48:56.465Z,0.00
2018-01-24T02:49:56.423Z,0.00
2018-01-24T02:50:56.419Z,0.00
2018-01-24T02:51:56.418Z,0.00
2018-01-24T02:52:56.426Z,0.00
2018-01-24T02:53:56.464Z,0.00
2018-01-24T02:54:56.410Z,0.00
2018-01-24T02:55:56.409Z,0.00
2018-01-24T02:56:56.455Z,0.00
2018-01-24T02:57:56.407Z,0.00
2018-01-24T02:58:56.398Z,0.00
2018-01-24T02:59:56.440Z,0.00
2018-01-24T03:00:56.479Z,0.00
2018-01-24T03:01:56.397Z,0.00
2018-01-24T03:02:56.395Z,0.00
2018-01-24T03:03:56.395Z,0.00
2018-01-24T03:04:56.435Z,0.00
2018-01-24T03:05:56.387Z,0.00
2018-01-24T03:06:56.430Z,0.00
2018-01-24T03:07:56.385Z,0.00
2018-01-24T03:08:56.384Z,0.00
2018-01-24T03:09:56.384Z,0.00
2018-01-24T03:10:56.425Z,0.00
2018-01-24T03:11:56.416Z,0.00
2018-01-24T03:12:56.374Z,0.00
2018-01-24T03:13:56.369Z,0.00
2018-01-24T03:14:56.414Z,0.00
2018-01-24T03:15:56.369Z,0.00
2018-01-24T03:16:56.404Z,0.00
2018-01-24T03:17:56.364Z,0.00
2018-01-24T03:18:56.359Z,0.00
2018-01-24T03:19:56.359Z,0.00
2018-01-24T03:20:56.399Z,0.00
2018-01-24T03:21:56.353Z,0.00
2018-01-24T03:22:56.354Z,0.00
2018-01-24T03:23:56.350Z,0.00
2018-01-24T03:24:56.352Z,0.00
2018-01-24T03:25:56.401Z,0.00
2018-01-24T03:26:56.526Z,0.00
2018-01-24T03:27:56.346Z,0.00
2018-01-24T03:28:56.341Z,0.00
2018-01-24T03:29:56.341Z,0.00
2018-01-24T03:30:56.338Z,0.00
2018-01-24T03:31:56.376Z,0.00
2018-01-24T03:32:56.331Z,0.00
2018-01-24T03:33:56.330Z,0.00
2018-01-24T03:34:56.330Z,0.00
2018-01-24T03:35:56.381Z,0.00
2018-01-24T03:36:56.325Z,0.00
2018-01-24T03:37:56.321Z,0.00
2018-01-24T03:38:56.317Z,0.00
2018-01-24T03:39:56.319Z,0.00
2018-01-24T03:40:56.314Z,0.00
2018-01-24T03:41:56.349Z,0.00
2018-01-24T03:42:56.355Z,0.00
2018-01-24T03:43:56.308Z,0.00
2018-01-24T03:44:56.313Z,0.00
2018-01-24T03:45:56.344Z,0.00
2018-01-24T03:46:56.304Z,0.00
2018-01-24T03:47:56.348Z,0.00
2018-01-24T03:48:56.303Z,0.00
2018-01-24T03:49:56.295Z,0.00
2018-01-24T03:50:56.296Z,0.00
2018-01-24T03:51:56.294Z,0.00
2018-01-24T03:52:56.347Z,0.00
2018-01-24T03:53:56.292Z,0.00
2018-01-24T03:54:56.291Z,0.00
2018-01-24T03:55:56.325Z,0.00
2018-01-24T03:56:56.283Z,0.00
2018-01-24T03:57:56.281Z,0.00
2018-01-24T03:58:56.319Z,0.00
2018-01-24T03:59:56.282Z,0.00
2018-01-24T04:00:56.276Z,0.00
2018-01-24T04:01:56.274Z,0.00
2018-01-24T04:02:56.276Z,0.00
2018-01-24T04:03:56.378Z,0.00
2018-01-24T04:04:56.270Z,0.00
2018-01-24T04:05:56.273Z,0.00
2018-01-24T04:06:56.264Z,0.00
2018-01-24T04:07:56.263Z,0.00
2018-01-24T04:08:56.300Z,0.00
2018-01-24T04:09:56.259Z,0.00
2018-01-24T04:10:56.259Z,0.00
2018-01-24T04:11:56.252Z,0.00
2018-01-24T04:12:56.254Z,0.00
2018-01-24T04:13:56.294Z,0.00
2018-01-24T04:14:56.250Z,0.00
2018-01-24T04:15:56.293Z,0.00
2018-01-24T04:16:56.244Z,0.00
2018-01-24T04:17:56.240Z,0.00
2018-01-24T04:18:56.237Z,0.00
2018-01-24T04:19:56.237Z,0.00
2018-01-24T04:20:56.281Z,0.00
2018-01-24T04:21:56.231Z,0.00
2018-01-24T04:22:56.229Z,0.00
2018-01-24T04:23:56.230Z,0.00
2018-01-24T04:24:56.228Z,0.00
2018-01-24T04:25:56.266Z,0.00
2018-01-24T04:26:56.220Z,0.00
2018-01-24T04:27:56.225Z,0.00
2018-01-24T04:28:56.216Z,0.00
2018-01-24T04:29:56.213Z,0.00
2018-01-24T04:30:56.250Z,0.00
2018-01-24T04:31:56.211Z,0.00
2018-01-24T04:32:56.207Z,0.00
2018-01-24T04:33:56.206Z,0.00
2018-01-24T04:34:56.202Z,0.00
2018-01-24T04:35:56.260Z,0.00
2018-01-24T04:36:56.200Z,0.00
2018-01-24T04:37:56.195Z,0.00
2018-01-24T04:38:56.246Z,0.00
2018-01-24T04:39:56.191Z,0.00
2018-01-24T04:40:56.229Z,0.00
2018-01-24T04:41:56.225Z,0.00
2018-01-24T04:42:56.184Z,0.00
2018-01-24T04:43:56.183Z,0.00
2018-01-24T04:44:56.182Z,0.00
2018-01-24T04:45:56.178Z,0.00
2018-01-24T04:46:56.226Z,0.00
2018-01-24T04:47:56.174Z,0.00
2018-01-24T04:48:56.175Z,0.00
2018-01-24T04:49:56.170Z,0.00
2018-01-24T04:50:56.169Z,0.00
2018-01-24T04:51:56.217Z,0.00
2018-01-24T04:52:56.165Z,0.00
2018-01-24T04:53:56.177Z,0.00
2018-01-24T04:54:56.207Z,0.00
2018-01-24T04:55:56.164Z,0.00
2018-01-24T04:56:56.158Z,0.00
2018-01-24T04:57:56.194Z,0.00
2018-01-24T04:58:56.154Z,0.00
2018-01-24T04:59:56.153Z,0.00
2018-01-24T05:00:56.149Z,0.00
2018-01-24T05:01:56.151Z,0.00
2018-01-24T05:02:56.199Z,0.00
2018-01-24T05:03:56.143Z,0.00
2018-01-24T05:04:56.191Z,0.00
2018-01-24T05:05:56.148Z,0.00
2018-01-24T05:06:56.141Z,0.00
2018-01-24T05:07:56.136Z,0.00
2018-01-24T05:08:56.185Z,0.00
2018-01-24T05:09:56.181Z,0.00
2018-01-24T05:10:56.132Z,0.00
2018-01-24T05:11:56.132Z,0.00
2018-01-24T05:12:56.131Z,0.00
2018-01-24T05:13:56.129Z,0.00
2018-01-24T05:14:56.171Z,0.00
2018-01-24T05:15:56.130Z,0.00
2018-01-24T05:16:56.121Z,0.00
2018-01-24T05:17:56.120Z,0.00
2018-01-24T05:18:56.120Z,0.00
2018-01-24T05:19:56.165Z,0.00
2018-01-24T05:20:56.138Z,0.00
2018-01-24T05:21:56.113Z,0.00
2018-01-24T05:22:56.110Z,0.00
2018-01-24T05:23:56.109Z,0.00
2018-01-24T05:24:56.146Z,0.00
2018-01-24T05:25:56.103Z,0.00
2018-01-24T05:26:56.101Z,0.00
2018-01-24T05:27:56.100Z,0.00
2018-01-24T05:28:56.100Z,0.00
2018-01-24T05:29:56.142Z,0.00
2018-01-24T05:30:56.094Z,0.00
2018-01-24T05:31:56.096Z,0.00
2018-01-24T05:32:56.089Z,0.00
2018-01-24T05:33:56.095Z,0.00
2018-01-24T05:34:56.134Z,0.00
2018-01-24T05:35:56.082Z,0.00
2018-01-24T05:36:56.079Z,0.00
2018-01-24T05:37:56.083Z,0.00
2018-01-24T05:38:56.081Z,0.00
2018-01-24T05:39:56.120Z,0.00
2018-01-24T05:40:56.178Z,0.00
2018-01-24T05:41:56.081Z,0.00
2018-01-24T05:42:56.090Z,0.00
2018-01-24T05:43:56.085Z,0.00
2018-01-24T05:44:56.122Z,0.00
2018-01-24T05:45:56.125Z,0.00
2018-01-24T05:46:56.087Z,0.00
2018-01-24T05:47:56.091Z,0.00
2018-01-24T05:48:56.079Z,0.00
2018-01-24T05:49:56.112Z,0.00
2018-01-24T05:50:56.066Z,0.00
2018-01-24T05:51:56.060Z,0.00
2018-01-24T05:52:56.057Z,0.00
2018-01-24T05:53:56.055Z,0.00
2018-01-24T05:54:56.096Z,0.00
2018-01-24T05:55:56.193Z,0.00
2018-01-24T05:56:56.050Z,0.00
2018-01-24T05:57:56.055Z,0.00
2018-01-24T05:58:56.067Z,0.00
2018-01-24T05:59:56.087Z,0.00
2018-01-24T06:00:56.119Z,0.00
2018-01-24T06:01:56.082Z,0.00
2018-01-24T06:02:56.050Z,0.00
2018-01-24T06:03:56.046Z,0.00
2018-01-24T06:04:56.030Z,0.00
2018-01-24T06:05:56.081Z,0.00
2018-01-24T06:06:56.040Z,0.00
2018-01-24T06:07:56.029Z,0.00
2018-01-24T06:08:56.030Z,0.00
2018-01-24T06:09:56.411Z,0.00
2018-01-24T06:10:56.026Z,0.00
2018-01-24T06:11:56.064Z,0.00
2018-01-24T06:12:56.016Z,0.00
2018-01-24T06:13:56.017Z,0.00
2018-01-24T06:14:56.060Z,0.00
2018-01-24T06:15:56.014Z,0.00
2018-01-24T06:16:56.052Z,0.00
2018-01-24T06:17:56.003Z,0.00
2018-01-24T06:18:56.004Z,0.00
2018-01-24T06:19:56.039Z,0.00
2018-01-24T06:20:56.046Z,0.00
2018-01-24T06:21:56.032Z,0.00
2018-01-24T06:22:55.988Z,0.00
2018-01-24T06:23:55.987Z,0.00
2018-01-24T06:24:56.034Z,4.00
2018-01-24T06:25:55.980Z,4.00
2018-01-24T06:26:55.986Z,0.00
2018-01-24T06:27:56.027Z,4.00
2018-01-24T06:28:56.154Z,4.00
2018-01-24T06:29:55.973Z,8.00
2018-01-24T06:30:55.972Z,8.00
2018-01-24T06:31:55.969Z,4.00
2018-01-24T06:32:56.004Z,8.00
2018-01-24T06:33:55.961Z,8.00
2018-01-24T06:34:55.960Z,12.00
2018-01-24T06:35:55.957Z,12.00
2018-01-24T06:36:56.004Z,12.00
2018-01-24T06:37:55.954Z,16.00
2018-01-24T06:38:55.953Z,16.00
2018-01-24T06:39:55.995Z,20.00
2018-01-24T06:40:55.948Z,24.00
2018-01-24T06:41:55.993Z,28.00
2018-01-24T06:42:55.943Z,32.00
2018-01-24T06:43:55.941Z,36.00
2018-01-24T06:44:55.988Z,44.00
2018-01-24T06:45:55.940Z,52.00
2018-01-24T06:46:55.936Z,64.00
2018-01-24T06:47:55.937Z,76.00
2018-01-24T06:48:55.933Z,80.00
2018-01-24T06:49:55.968Z,88.00
2018-01-24T06:50:55.928Z,96.00
2018-01-24T06:51:55.927Z,104.00
2018-01-24T06:52:55.962Z,112.00
2018-01-24T06:53:55.922Z,128.00
2018-01-24T06:54:55.922Z,144.00
2018-01-24T06:55:55.920Z,148.00
2018-01-24T06:56:55.918Z,160.00
2018-01-24T06:57:55.997Z,172.00
2018-01-24T06:58:55.955Z,192.00
2018-01-24T06:59:55.912Z,212.00
2018-01-24T07:00:55.912Z,240.00
2018-01-24T07:01:55.907Z,264.00
2018-01-24T07:02:55.905Z,304.00
2018-01-24T07:03:55.951Z,356.00
2018-01-24T07:04:55.908Z,396.00
2018-01-24T07:05:55.901Z,424.00
2018-01-24T07:06:55.902Z,460.00
2018-01-24T07:07:55.897Z,500.00
2018-01-24T07:08:55.940Z,536.00
2018-01-24T07:09:55.934Z,568.00
2018-01-24T07:10:55.894Z,628.00
2018-01-24T07:11:55.891Z,680.00
2018-01-24T07:12:55.896Z,700.00
2018-01-24T07:13:55.889Z,720.00
2018-01-24T07:14:55.930Z,756.00
2018-01-24T07:15:55.886Z,816.00
2018-01-24T07:16:55.882Z,872.00
2018-01-24T07:17:55.882Z,912.00
2018-01-24T07:18:55.919Z,964.00
2018-01-24T07:19:55.876Z,1016.00
2018-01-24T07:20:55.919Z,1056.00
2018-01-24T07:21:55.873Z,1104.00
2018-01-24T07:22:55.916Z,1120.00
2018-01-24T07:23:55.871Z,1164.00
2018-01-24T07:24:55.869Z,1188.00
2018-01-24T07:25:55.904Z,1180.00
2018-01-24T07:26:55.868Z,1204.00
2018-01-24T07:27:55.861Z,1252.00
2018-01-24T07:28:55.864Z,1248.00
2018-01-24T07:29:55.858Z,1268.00
2018-01-24T07:30:55.899Z,1408.00
2018-01-24T07:31:55.852Z,1512.00
2018-01-24T07:32:55.852Z,1564.00
2018-01-24T07:33:55.855Z,1616.00
2018-01-24T07:34:55.850Z,1728.00
2018-01-24T07:35:55.887Z,1944.00
2018-01-24T07:36:55.844Z,2300.00
2018-01-24T07:37:55.842Z,2576.00
2018-01-24T07:38:55.843Z,2708.00
2018-01-24T07:39:55.841Z,2768.00
2018-01-24T07:40:55.886Z,2892.00
2018-01-24T07:41:55.838Z,3136.00
2018-01-24T07:42:55.835Z,3128.00
2018-01-24T07:43:55.877Z,3112.00
2018-01-24T07:44:55.833Z,3124.00
2018-01-24T07:45:55.831Z,3212.00
2018-01-24T07:46:55.871Z,3324.00
2018-01-24T07:47:55.832Z,3324.00
2018-01-24T07:48:55.826Z,3576.00
2018-01-24T07:49:55.826Z,3808.00
2018-01-24T07:50:55.880Z,3868.00
2018-01-24T07:51:55.823Z,3788.00
2018-01-24T07:52:55.861Z,3820.00
2018-01-24T07:53:55.823Z,3628.00
2018-01-24T07:54:55.818Z,3804.00
2018-01-24T07:55:55.832Z,3780.00
2018-01-24T07:56:55.863Z,3644.00
2018-01-24T07:57:55.854Z,3708.00
2018-01-24T07:58:55.820Z,4016.00
2018-01-24T07:59:55.810Z,3932.00
2018-01-24T08:00:58.488Z,3992.00
2018-01-24T08:01:55.806Z,4448.00
2018-01-24T08:02:55.849Z,4436.00
2018-01-24T08:03:55.805Z,4460.00
2018-01-24T08:04:55.805Z,4180.00
2018-01-24T08:05:55.801Z,4200.00
2018-01-24T08:06:55.799Z,4292.00
2018-01-24T08:07:55.837Z,4340.00
2018-01-24T08:08:55.801Z,4220.00
2018-01-24T08:09:55.809Z,4528.00
2018-01-24T08:10:55.795Z,5352.00
2018-01-24T08:11:55.793Z,6192.00
2018-01-24T08:12:55.841Z,6016.00
2018-01-24T08:13:55.791Z,6396.00
2018-01-24T08:14:55.790Z,6644.00
2018-01-24T08:15:55.795Z,6812.00
2018-01-24T08:16:55.790Z,6572.00
2018-01-24T08:17:55.824Z,6544.00
2018-01-24T08:18:55.821Z,7064.00
2018-01-24T08:19:55.784Z,6748.00
2018-01-24T08:20:55.783Z,6940.00
2018-01-24T08:21:55.788Z,7372.00
2018-01-24T08:22:55.779Z,6964.00
2018-01-24T08:23:55.826Z,5524.00
2018-01-24T08:24:55.778Z,5340.00
2018-01-24T08:25:55.776Z,5508.00
2018-01-24T08:26:55.777Z,6020.00
2018-01-24T08:27:55.822Z,6040.00
2018-01-24T08:28:55.817Z,7068.00
2018-01-24T08:29:55.770Z,7724.00
2018-01-24T08:30:55.834Z,7880.00
2018-01-24T08:31:55.772Z,7620.00
2018-01-24T08:32:55.770Z,7796.00
2018-01-24T08:33:55.806Z,8340.00
2018-01-24T08:34:55.767Z,8348.00
2018-01-24T08:35:55.766Z,8312.00
2018-01-24T08:36:55.765Z,9088.00
2018-01-24T08:37:55.812Z,8796.00
2018-01-24T08:38:55.760Z,9628.00
2018-01-24T08:39:55.759Z,10152.00
2018-01-24T08:40:55.762Z,10672.00
2018-01-24T08:41:55.800Z,11560.00
2018-01-24T08:42:55.759Z,11160.00
2018-01-24T08:43:55.810Z,10696.00
2018-01-24T08:44:55.761Z,11192.00
2018-01-24T08:45:55.759Z,11128.00
2018-01-24T08:46:56.435Z,11780.00
2018-01-24T08:47:55.754Z,11968.00
2018-01-24T08:48:55.802Z,12528.00
2018-01-24T08:49:55.755Z,13424.00
2018-01-24T08:50:55.756Z,13420.00
2018-01-24T08:51:55.797Z,13604.00
2018-01-24T08:52:55.755Z,13624.00
2018-01-24T08:53:55.801Z,13672.00
2018-01-24T08:54:55.750Z,13920.00
2018-01-24T08:55:55.754Z,13992.00
2018-01-24T08:56:55.800Z,13708.00
2018-01-24T08:57:55.757Z,13588.00
2018-01-24T08:58:55.757Z,13516.00
2018-01-24T08:59:55.758Z,13136.00
2018-01-24T09:00:55.758Z,12600.00
2018-01-24T09:01:55.792Z,12228.00
2018-01-24T09:04:19.857Z,12164.00
2018-01-24T09:05:19.672Z,11928.00
2018-01-24T09:06:19.679Z,11384.00
2018-01-24T09:07:19.681Z,11784.00
2018-01-24T09:08:19.662Z,11484.00
2018-01-24T09:09:19.705Z,11652.00
2018-01-24T09:10:19.663Z,11676.00
2018-01-24T09:11:19.699Z,11760.00
2018-01-24T09:12:19.669Z,12024.00
2018-01-24T09:13:19.669Z,12364.00
2018-01-24T09:14:19.666Z,12372.00
2018-01-24T09:15:19.715Z,12460.00
2018-01-24T09:16:19.711Z,12044.00
2018-01-24T09:17:19.669Z,11572.00
2018-01-24T09:18:19.667Z,12024.00
2018-01-24T09:19:19.671Z,13108.00
2018-01-24T09:20:19.713Z,13772.00
2018-01-24T09:21:19.773Z,15376.00
2018-01-24T09:22:19.668Z,16132.00
2018-01-24T09:23:20.522Z,16116.00
2018-01-24T09:24:19.670Z,15628.00
2018-01-24T09:25:19.667Z,14072.00
2018-01-24T09:26:19.717Z,13076.00
2018-01-24T09:27:19.666Z,13176.00
2018-01-24T09:28:19.670Z,13388.00
2018-01-24T09:29:19.672Z,14216.00
2018-01-24T09:30:19.669Z,17536.00
2018-01-24T09:31:19.708Z,18016.00
2018-01-24T09:32:20.946Z,22976.00
2018-01-24T09:33:19.671Z,16912.00
2018-01-24T09:34:19.673Z,18976.00
2018-01-24T09:35:19.671Z,18528.00
2018-01-24T09:36:19.715Z,18656.00
2018-01-24T09:37:19.677Z,18720.00
2018-01-24T09:38:19.680Z,19296.00
2018-01-24T09:39:19.677Z,19680.00
2018-01-24T09:40:19.731Z,19872.00
2018-01-24T09:41:19.685Z,19840.00
2018-01-24T09:42:19.689Z,19072.00
2018-01-24T09:43:19.687Z,26688.00
2018-01-24T09:44:19.692Z,22464.00
2018-01-24T09:45:19.777Z,25216.00
2018-01-24T09:46:19.696Z,29344.00
2018-01-24T09:47:19.697Z,23744.00
2018-01-24T09:48:19.700Z,23168.00
2018-01-24T09:49:19.702Z,29664.00
2018-01-24T09:50:19.755Z,26816.00
2018-01-24T09:51:19.708Z,28352.00
2018-01-24T09:52:19.713Z,31232.00
2018-01-24T09:53:19.716Z,34400.00
2018-01-24T09:54:19.719Z,32224.00
2018-01-24T09:55:19.946Z,32832.00
2018-01-24T09:56:19.770Z,35104.00
2018-01-24T09:57:19.736Z,34464.00
2018-01-24T09:58:19.739Z,34560.00
2018-01-24T09:59:19.746Z,32032.00
2018-01-24T10:00:19.753Z,27552.00
2018-01-24T10:01:19.800Z,28608.00
2018-01-24T10:02:19.768Z,26912.00
2018-01-24T10:03:19.804Z,21152.00
2018-01-24T10:04:19.806Z,24864.00
2018-01-24T10:05:19.810Z,24960.00
2018-01-24T10:06:19.867Z,24256.00
2018-01-24T10:07:19.821Z,25312.00
2018-01-24T10:08:19.828Z,24224.00
2018-01-24T10:09:19.835Z,21792.00
2018-01-24T10:10:19.881Z,20032.00
2018-01-24T10:11:19.848Z,21792.00
2018-01-24T10:12:19.902Z,20640.00
2018-01-24T10:13:19.860Z,19936.00
2018-01-24T10:14:19.867Z,19360.00
2018-01-24T10:15:19.913Z,19872.00
2018-01-24T10:16:19.878Z,20160.00
2018-01-24T10:17:19.919Z,19936.00
2018-01-24T10:18:19.887Z,19936.00
2018-01-24T10:19:19.891Z,20224.00
2018-01-24T10:20:19.893Z,20736.00
2018-01-24T10:21:20.067Z,20064.00
2018-01-24T10:22:19.954Z,19936.00
2018-01-24T10:23:19.908Z,19872.00
2018-01-24T10:24:19.913Z,19776.00
2018-01-24T10:25:19.915Z,19040.00
2018-01-24T10:26:19.926Z,18272.00
2018-01-24T10:27:20.492Z,16324.00
2018-01-24T10:28:20.209Z,15692.00
2018-01-24T10:29:20.853Z,15264.00
2018-01-24T10:30:19.983Z,14384.00
2018-01-24T10:31:19.935Z,13196.00
2018-01-24T10:32:19.943Z,12656.00
2018-01-24T10:33:19.944Z,12140.00
2018-01-24T10:34:21.234Z,12108.00
2018-01-24T10:35:20.248Z,13316.00
2018-01-24T10:36:20.940Z,14516.00
2018-01-24T10:37:19.952Z,16236.00
2018-01-24T10:38:19.955Z,19072.00
2018-01-24T10:39:19.956Z,17160.00
2018-01-24T10:40:20.003Z,17080.00
2018-01-24T10:41:20.308Z,18272.00
2018-01-24T10:42:20.735Z,17920.00
2018-01-24T10:43:20.102Z,20160.00
2018-01-24T10:44:20.020Z,19360.00
2018-01-24T10:45:19.971Z,22592.00
2018-01-24T10:46:19.976Z,18368.00
2018-01-24T10:47:19.975Z,19040.00
2018-01-24T10:48:19.978Z,19232.00
2018-01-24T10:49:20.022Z,21056.00
2018-01-24T10:50:20.032Z,22912.00
2018-01-24T10:51:19.982Z,22368.00
2018-01-24T10:52:20.256Z,18880.00
2018-01-24T10:53:20.263Z,16980.00
2018-01-24T10:54:20.414Z,18272.00
2018-01-24T10:55:19.993Z,22560.00
2018-01-24T10:56:19.994Z,24864.00
2018-01-24T10:57:20.906Z,28992.00
2018-01-24T10:58:21.736Z,19360.00
2018-01-24T10:59:21.916Z,24512.00
2018-01-24T11:00:20.006Z,35520.00
2018-01-24T11:01:20.014Z,30880.00
2018-01-24T11:02:20.015Z,30560.00
2018-01-24T11:03:20.022Z,23040.00
2018-01-24T11:04:20.064Z,21408.00
2018-01-24T11:05:20.030Z,21600.00
2018-01-24T11:06:20.031Z,24032.00
2018-01-24T11:07:20.087Z,23328.00
2018-01-24T11:08:20.039Z,17728.00
2018-01-24T11:09:20.088Z,18720.00
2018-01-24T11:10:20.049Z,16592.00
2018-01-24T11:11:20.051Z,14052.00
2018-01-24T11:12:20.059Z,13872.00
2018-01-24T11:13:20.101Z,14996.00
2018-01-24T11:14:20.066Z,14720.00
2018-01-24T11:15:20.065Z,11444.00
2018-01-24T11:16:20.067Z,11032.00
2018-01-24T11:17:20.074Z,11660.00
2018-01-24T11:18:20.112Z,14552.00
2018-01-24T11:19:20.075Z,17316.00
2018-01-24T11:20:20.108Z,24000.00
2018-01-24T11:21:20.080Z,22592.00
2018-01-24T11:22:20.085Z,24544.00
2018-01-24T11:23:20.125Z,31648.00
2018-01-24T11:24:20.087Z,31680.00
2018-01-24T11:25:20.092Z,31680.00
2018-01-24T11:26:20.095Z,32640.00
2018-01-24T11:27:20.097Z,33536.00
2018-01-24T11:28:20.157Z,27040.00
2018-01-24T11:29:20.158Z,32352.00
2018-01-24T11:30:20.116Z,32288.00
2018-01-24T11:31:20.119Z,32896.00
2018-01-24T11:32:20.126Z,30176.00
2018-01-24T11:33:20.132Z,30592.00
2018-01-24T11:34:20.179Z,31712.00
2018-01-24T11:35:20.144Z,34016.00
2018-01-24T11:36:20.152Z,36672.00
2018-01-24T11:37:20.161Z,36256.00
2018-01-24T11:38:20.168Z,33536.00
2018-01-24T11:39:20.216Z,31552.00
2018-01-24T11:40:20.182Z,31296.00
2018-01-24T11:41:20.192Z,30432.00
2018-01-24T11:42:20.201Z,30080.00
2018-01-24T11:43:20.212Z,30688.00
2018-01-24T11:44:20.266Z,31456.00
2018-01-24T11:45:20.227Z,32064.00
2018-01-24T11:46:20.239Z,32416.00
2018-01-24T11:47:20.249Z,33888.00
2018-01-24T11:48:20.298Z,34496.00
2018-01-24T11:49:20.267Z,33984.00
2018-01-24T11:50:20.315Z,32736.00
2018-01-24T11:51:20.289Z,31520.00
2018-01-24T11:52:20.301Z,31136.00
2018-01-24T11:53:20.312Z,30496.00
2018-01-24T11:54:21.200Z,31584.00
2018-01-24T11:55:20.380Z,30784.00
2018-01-24T11:56:20.345Z,26080.00
2018-01-24T11:57:20.355Z,31232.00
2018-01-24T11:58:20.421Z,32960.00
2018-01-24T11:59:20.377Z,23520.00
2018-01-24T12:00:20.388Z,35680.00
2018-01-24T12:01:22.405Z,32960.00
2018-01-24T12:02:20.411Z,33760.00
2018-01-24T12:03:20.460Z,33632.00
2018-01-24T12:04:20.434Z,27424.00
2018-01-24T12:05:20.444Z,32736.00
2018-01-24T12:06:20.497Z,31968.00
2018-01-24T12:07:20.507Z,31136.00
2018-01-24T12:08:20.473Z,25280.00
2018-01-24T12:09:20.504Z,29760.00
2018-01-24T12:10:20.504Z,27360.00
2018-01-24T12:11:20.510Z,26976.00
2018-01-24T12:12:20.573Z,26304.00
2018-01-24T12:13:20.569Z,28544.00
2018-01-24T12:14:20.544Z,29216.00
2018-01-24T12:15:20.555Z,30848.00
2018-01-24T12:16:20.564Z,30976.00
2018-01-24T12:17:20.618Z,32512.00
2018-01-24T12:18:20.638Z,29536.00
2018-01-24T12:19:20.601Z,28128.00
2018-01-24T12:20:20.611Z,28352.00
2018-01-24T12:21:20.624Z,27936.00
2018-01-24T12:22:20.633Z,29856.00
2018-01-24T12:23:20.683Z,32288.00
2018-01-24T12:24:21.380Z,31584.00
2018-01-24T12:25:20.666Z,30432.00
2018-01-24T12:26:20.677Z,29056.00
2018-01-24T12:27:20.691Z,29888.00
2018-01-24T12:28:20.750Z,29824.00
2018-01-24T12:29:20.714Z,29888.00
2018-01-24T12:30:20.727Z,29568.00
2018-01-24T12:31:20.734Z,32864.00
2018-01-24T12:32:20.747Z,33920.00
2018-01-24T12:33:20.802Z,29344.00
2018-01-24T12:34:20.771Z,31808.00
2018-01-24T12:35:20.782Z,30432.00
2018-01-24T12:36:20.794Z,24224.00
2018-01-24T12:37:20.806Z,26368.00
2018-01-24T12:38:20.859Z,19616.00